Time;durP1;ratioP1;P1;durP2;ratioP2;P2;SDS_P1;SDS_P2;PMS_P1;PMS_P2;Temp;Humidity;BMP_temperature;BMP_pressure;BME280_temperature;BME280_humidity;BME280_pressure;Samples;Min_cycle;Max_cycle;Signal;HPM_P1;HPM_P2
2022/11/07 00:01:22;;;;;;;4.45;2.55;;;;;;;10.14;62.30;100986.63;4895245;29;20070;-80
2022/11/07 00:04:07;;;;;;;5.25;2.53;;;;;;;10.22;62.04;100980.50;4896988;29;20056;-80
2022/11/07 00:06:52;;;;;;;3.65;2.15;;;;;;;10.29;61.54;100984.41;4913462;29;20059;-80
2022/11/07 00:09:37;;;;;;;2.25;1.48;;;;;;;10.37;60.87;100980.16;4927232;28;20431;-80
2022/11/07 00:12:21;;;;;;;2.53;1.73;;;;;;;10.49;60.79;100982.31;4913623;29;20051;-79
2022/11/07 00:15:06;;;;;;;5.25;2.28;;;;;;;10.47;61.05;100981.81;4998101;28;20063;-79
2022/11/07 00:17:51;;;;;;;3.30;1.65;;;;;;;10.51;60.28;100985.56;4926275;29;20059;-80
2022/11/07 00:20:35;;;;;;;3.08;2.03;;;;;;;10.42;60.48;100984.66;4930111;29;20574;-82
2022/11/07 00:23:20;;;;;;;2.88;1.73;;;;;;;10.48;60.43;100991.59;4913374;29;20523;-80
2022/11/07 00:26:11;;;;;;;3.45;1.65;;;;;;;10.46;60.33;100983.75;4912778;29;20059;-78
2022/11/07 00:28:56;;;;;;;4.68;1.70;;;;;;;10.53;60.37;100988.75;4926255;29;20051;-79
2022/11/07 00:31:41;;;;;;;2.67;1.50;;;;;;;10.53;60.82;100994.19;4894453;29;20121;-80
2022/11/07 00:34:25;;;;;;;3.20;1.27;;;;;;;10.51;60.88;100996.44;4894084;29;20527;-79
2022/11/07 00:37:10;;;;;;;6.68;1.67;;;;;;;10.55;61.39;100992.78;4900728;29;20424;-80
2022/11/07 00:39:54;;;;;;;3.75;1.25;;;;;;;10.66;61.43;100994.16;4939259;28;20051;-82
2022/11/07 00:42:38;;;;;;;3.43;2.23;;;;;;;10.54;61.70;100983.00;4912757;29;20056;-80
2022/11/07 00:45:23;;;;;;;3.38;2.00;;;;;;;10.54;61.89;100982.22;4929981;29;20671;-80
2022/11/07 00:48:07;;;;;;;2.80;1.42;;;;;;;10.61;61.96;100979.88;4912694;29;20071;-81
2022/11/07 00:50:52;;;;;;;4.82;2.63;;;;;;;10.57;61.34;100981.56;4926876;29;20071;-81
2022/11/07 00:53:37;;;;;;;2.78;1.63;;;;;;;10.58;61.44;100985.91;4913062;29;20052;-79
2022/11/07 00:56:24;;;;;;;2.20;1.60;;;;;;;10.65;61.13;100986.31;4912705;29;20055;-79
2022/11/07 00:59:08;;;;;;;3.65;1.73;;;;;;;10.55;61.59;100990.06;4926105;29;20055;-79
2022/11/07 01:01:53;;;;;;;2.35;1.40;;;;;;;10.40;61.54;100984.19;4930175;29;20052;-78
2022/11/07 01:07:41;;;;;;;4.53;1.42;;;;;;;10.40;62.62;100992.34;4928990;29;20055;-78
2022/11/07 01:10:26;;;;;;;2.47;1.73;;;;;;;10.29;61.46;100995.28;4927924;28;20518;-79
2022/11/07 01:13:11;;;;;;;4.78;1.70;;;;;;;10.27;61.00;100991.25;4930626;29;20526;-78
2022/11/07 01:15:56;;;;;;;2.55;1.75;;;;;;;10.33;60.92;100995.47;4928378;29;20067;-78
2022/11/07 01:18:41;;;;;;;3.03;1.52;;;;;;;10.37;59.90;101001.09;4919403;29;20712;-78
2022/11/07 01:21:25;;;;;;;2.38;1.50;;;;;;;10.50;59.76;101000.25;4912422;29;20051;-77
2022/11/07 01:24:12;;;;;;;3.40;1.58;;;;;;;10.56;59.51;100999.84;4928047;29;20047;-79
2022/11/07 01:26:57;;;;;;;3.58;2.05;;;;;;;10.56;59.16;101001.75;4932575;29;20059;-79
2022/11/07 01:29:42;;;;;;;2.72;1.70;;;;;;;10.44;59.71;100999.56;4917539;29;20056;-80
2022/11/07 01:32:26;;;;;;;4.45;2.10;;;;;;;10.43;59.31;100997.94;4916069;29;20518;-79
2022/11/07 01:35:11;;;;;;;4.82;1.70;;;;;;;10.60;58.26;101006.25;4915516;29;20055;-79
2022/11/07 01:37:56;;;;;;;3.60;2.17;;;;;;;10.54;58.76;101001.25;4917287;29;20051;-79
2022/11/07 01:43:51;;;;;;;3.30;2.20;;;;;;;10.41;59.49;101007.53;4914880;29;20051;-79
2022/11/07 01:46:39;;;;;;;5.07;2.17;;;;;;;10.46;59.32;101005.50;4930474;29;20047;-79
2022/11/07 01:49:31;;;;;;;6.18;2.22;;;;;;;10.43;59.96;101002.59;4919811;28;20059;-79
2022/11/07 01:52:20;;;;;;;3.42;2.08;;;;;;;10.28;60.02;100993.66;4930854;29;20035;-79
2022/11/07 01:55:22;;;;;;;2.92;1.90;;;;;;;10.20;60.02;100991.69;4919847;29;20060;-80
2022/11/07 01:58:08;;;;;;;3.45;1.83;;;;;;;9.97;60.51;100989.97;4930688;29;20047;-82
2022/11/07 02:00:54;;;;;;;2.95;2.33;;;;;;;9.89;60.71;100990.69;4925074;29;20519;-80
2022/11/07 02:03:39;;;;;;;4.82;1.98;;;;;;;9.87;60.51;100990.19;4916705;29;20416;-82
2022/11/07 02:06:43;;;;;;;2.70;1.63;;;;;;;9.88;60.12;100989.09;4911361;29;20515;-80
2022/11/07 02:09:29;;;;;;;7.45;2.63;;;;;;;9.67;60.86;100979.75;4924152;29;20044;-82
2022/11/07 02:12:14;;;;;;;7.07;1.35;;;;;;;9.72;60.95;100988.59;4933288;28;20046;-83
2022/11/07 02:15:00;;;;;;;3.80;2.40;;;;;;;9.66;61.19;100981.66;4926024;29;20051;-82
2022/11/07 02:17:45;;;;;;;3.88;2.08;;;;;;;9.60;61.38;100987.50;4898126;29;20420;-82
2022/11/07 02:20:30;;;;;;;3.42;1.90;;;;;;;9.56;62.01;100990.00;4928251;29;20055;-80
2022/11/07 02:23:19;;;;;;;;;;;;;;;9.63;62.09;100992.31;4915595;29;20522;-80
2022/11/07 02:26:03;;;;;;;4.90;2.70;;;;;;;9.27;63.24;100993.00;4927629;29;19915;-80
2022/11/07 02:28:50;;;;;;;2.58;1.88;;;;;;;9.30;62.80;100988.88;4920959;29;20055;-80
2022/11/07 02:31:36;;;;;;;6.65;3.78;;;;;;;9.38;63.25;100989.00;4946061;28;20051;-79
2022/11/07 02:34:20;;;;;;;3.38;2.42;;;;;;;9.50;62.48;100993.13;4930831;29;20067;-80
2022/11/07 02:37:18;;;;;;;9.50;2.05;;;;;;;9.91;61.30;100999.34;4914984;29;20051;-80
2022/11/07 02:40:08;;;;;;;7.47;2.72;;;;;;;9.70;62.00;100988.09;4926981;29;20060;-80
2022/11/07 02:42:53;;;;;;;6.82;3.95;;;;;;;9.59;63.12;100996.75;4929642;29;20072;-79
2022/11/07 02:45:43;;;;;;;6.88;3.20;;;;;;;9.65;62.57;100992.84;4915017;29;20059;-79
2022/11/07 02:48:30;;;;;;;4.90;2.78;;;;;;;9.56;62.34;100991.91;4914733;29;20043;-78
2022/11/07 02:51:15;;;;;;;4.45;2.35;;;;;;;9.47;61.37;100991.00;4929862;29;20059;-80
2022/11/07 02:54:00;;;;;;;3.80;2.00;;;;;;;9.08;61.88;100991.47;4933306;29;20063;-80
2022/11/07 02:56:45;;;;;;;3.40;1.95;;;;;;;8.86;63.59;101000.22;4931421;29;20055;-82
2022/11/07 02:59:29;;;;;;;3.67;2.42;;;;;;;8.94;64.17;100991.41;4927493;29;20068;-81
2022/11/07 03:02:14;;;;;;;5.88;3.00;;;;;;;8.97;63.99;100991.63;4927816;29;20075;-81
2022/11/07 03:04:58;;;;;;;3.75;2.25;;;;;;;9.14;63.12;100988.38;4933004;29;20047;-79
2022/11/07 03:07:44;;;;;;;3.58;2.33;;;;;;;9.17;62.25;101000.53;4929892;29;20055;-80
2022/11/07 03:10:29;;;;;;;2.78;1.88;;;;;;;8.95;62.65;101006.59;4909273;29;20710;-80
2022/11/07 03:13:13;;;;;;;5.72;2.28;;;;;;;8.85;63.58;101001.31;4982907;28;20052;-80
2022/11/07 03:15:58;;;;;;;3.47;2.10;;;;;;;9.02;63.25;100996.16;4911188;29;20048;-79
2022/11/07 03:18:43;;;;;;;5.10;3.08;;;;;;;9.00;62.74;100996.44;4917261;29;20422;-81
2022/11/07 03:21:27;;;;;;;3.03;1.95;;;;;;;9.05;62.87;101000.19;4933074;29;20447;-79
2022/11/07 03:24:12;;;;;;;1.90;1.38;;;;;;;8.98;62.65;101008.72;4931785;29;20059;-80
2022/11/07 03:26:57;;;;;;;5.38;2.05;;;;;;;8.75;62.70;101009.63;4927799;29;20047;-80
2022/11/07 03:29:42;;;;;;;4.28;2.67;;;;;;;8.66;63.07;101008.69;4913183;29;20613;-80
2022/11/07 03:32:27;;;;;;;4.03;2.47;;;;;;;8.80;63.93;101010.34;4926822;29;20047;-80
2022/11/07 03:35:12;;;;;;;6.18;2.80;;;;;;;9.03;63.98;101019.47;4913648;29;20470;-81
2022/11/07 03:37:57;;;;;;;;;;;;;;;9.05;63.50;101016.44;4923462;29;20059;-80
2022/11/07 03:40:44;;;;;;;4.00;2.25;;;;;;;8.96;63.07;101016.34;4935491;28;19915;-79
2022/11/07 03:43:29;;;;;;;6.18;3.90;;;;;;;8.71;63.70;101019.47;4928037;29;20051;-80
2022/11/07 03:46:15;;;;;;;4.68;2.40;;;;;;;8.62;63.46;101019.31;4913580;29;20047;-80
2022/11/07 03:48:59;;;;;;;6.22;3.13;;;;;;;8.79;63.74;101024.19;4926570;29;20059;-79
2022/11/07 03:51:44;;;;;;;5.50;2.95;;;;;;;8.85;63.57;101031.16;4928515;29;20055;-79
2022/11/07 03:54:29;;;;;;;6.85;2.33;;;;;;;8.68;63.66;101033.63;4926164;29;20048;-80
2022/11/07 03:57:13;;;;;;;2.83;2.20;;;;;;;8.50;62.95;101040.63;4930188;29;20055;-78
2022/11/07 03:59:58;;;;;;;4.15;2.53;;;;;;;8.43;63.38;101041.00;4915100;29;20051;-79
2022/11/07 04:02:43;;;;;;;3.10;1.98;;;;;;;8.49;63.63;101039.84;4905135;29;20063;-79
2022/11/07 04:05:27;;;;;;;3.58;1.88;;;;;;;8.67;63.34;101051.78;4955498;28;20055;-79
2022/11/07 04:08:12;;;;;;;5.95;2.72;;;;;;;8.63;63.49;101053.47;4914885;29;20439;-80
2022/11/07 04:10:56;;;;;;;7.60;3.42;;;;;;;8.69;63.43;101054.19;4926641;29;20051;-79
2022/11/07 04:19:55;;;;;;;8.00;2.35;;;;;;;8.83;63.02;101060.50;4903766;29;20071;-78
2022/11/07 04:22:40;;;;;;;6.18;2.08;;;;;;;8.72;62.43;101059.84;4930820;29;20052;-79
2022/11/07 04:28:28;;;;;;;9.32;2.50;;;;;;;8.59;63.54;101066.78;4927201;29;20047;-78
2022/11/07 04:31:13;;;;;;;3.35;1.95;;;;;;;8.53;63.83;101061.75;4912839;29;20059;-79
2022/11/07 04:33:58;;;;;;;5.78;2.38;;;;;;;8.50;64.33;101065.03;4925809;29;20063;-79
2022/11/07 04:36:42;;;;;;;4.28;2.67;;;;;;;8.70;64.81;101066.63;4916479;29;20051;-79
2022/11/07 04:39:27;;;;;;;4.13;2.45;;;;;;;8.56;63.69;101080.13;5010681;22;20124;-77
2022/11/07 04:42:12;;;;;;;4.80;2.40;;;;;;;8.25;64.71;101090.53;5048390;28;20051;-76
2022/11/07 04:44:57;;;;;;;8.95;2.25;;;;;;;8.27;64.53;101082.94;5045798;28;20048;-79
2022/11/07 04:47:42;;;;;;;5.88;2.38;;;;;;;8.27;64.57;101091.06;5053106;28;20055;-77
2022/11/07 04:50:26;;;;;;;;;;;;;;;8.27;64.35;101096.47;5056290;28;20048;-77
2022/11/07 04:53:13;;;;;;;2.92;1.90;;;;;;;8.14;65.62;101087.16;5057059;28;20535;-78
2022/11/07 04:55:57;;;;;;;2.75;2.05;;;;;;;8.15;64.55;101085.25;5057630;28;20056;-76
2022/11/07 04:58:42;;;;;;;4.95;2.08;;;;;;;8.38;63.42;101087.13;5051227;28;20047;-77
2022/11/07 05:01:26;;;;;;;2.67;1.63;;;;;;;8.31;63.79;101097.53;5045719;28;20072;-77
2022/11/07 05:04:11;;;;;;;12.02;1.70;;;;;;;8.23;64.09;101095.44;5045378;28;20052;-78
2022/11/07 05:06:55;;;;;;;6.80;2.33;;;;;;;8.21;64.17;101097.63;5043938;28;20135;-79
2022/11/07 05:09:40;;;;;;;3.13;2.10;;;;;;;8.14;64.11;101095.28;5056063;28;20056;-79
2022/11/07 05:12:24;;;;;;;6.35;2.85;;;;;;;8.31;64.25;101097.53;5045388;28;20044;-76
2022/11/07 05:15:09;;;;;;;6.47;2.88;;;;;;;8.40;63.51;101095.78;5035568;28;20435;-76
2022/11/07 05:17:54;;;;;;;3.22;1.88;;;;;;;8.32;63.64;101098.34;5042742;28;20051;-78
2022/11/07 05:20:39;;;;;;;4.45;2.17;;;;;;;8.31;64.28;101085.91;5054639;28;20048;-77
2022/11/07 05:23:26;;;;;;;6.97;2.22;;;;;;;8.35;63.99;101093.16;5042301;28;20059;-77
2022/11/07 05:26:11;;;;;;;4.85;2.55;;;;;;;8.31;64.15;101096.72;5057657;28;20507;-78
2022/11/07 05:28:56;;;;;;;6.72;3.05;;;;;;;8.47;63.66;101096.25;5058055;28;20048;-79
2022/11/07 05:31:40;;;;;;;5.20;2.40;;;;;;;8.40;63.36;101098.50;5048597;28;20051;-78
2022/11/07 05:34:25;;;;;;;16.55;2.83;;;;;;;8.35;63.93;101101.28;5054127;28;20048;-78
2022/11/07 05:37:11;;;;;;;16.87;5.47;;;;;;;8.04;64.46;101102.72;5043767;28;20048;-76
2022/11/07 05:39:55;;;;;;;10.57;2.95;;;;;;;8.02;65.02;101102.22;5041690;28;20310;-76
2022/11/07 05:42:40;;;;;;;4.20;2.15;;;;;;;7.90;65.04;101101.78;5050199;28;20048;-76
2022/11/07 05:45:26;;;;;;;10.60;2.05;;;;;;;8.02;64.52;101099.50;5036486;28;20111;-76
2022/11/07 05:48:12;;;;;;;12.35;3.00;;;;;;;7.91;64.86;101108.81;5054170;28;20056;-77
2022/11/07 05:50:57;;;;;;;6.43;2.53;;;;;;;8.05;64.23;101102.44;5048102;28;20076;-77
2022/11/07 05:53:42;;;;;;;9.60;2.67;;;;;;;8.07;64.42;101100.25;5054882;28;20044;-77
2022/11/07 05:56:26;;;;;;;3.53;1.80;;;;;;;7.97;64.99;101107.69;5049017;28;20064;-77
2022/11/07 05:59:11;;;;;;;2.05;1.50;;;;;;;7.92;64.79;101115.84;5052021;28;20063;-76
2022/11/07 06:01:56;;;;;;;3.42;1.73;;;;;;;8.01;64.40;101124.97;5045988;28;20047;-77
2022/11/07 06:04:40;;;;;;;4.60;1.50;;;;;;;8.08;65.17;101115.38;5061656;28;20511;-77
2022/11/07 06:07:25;;;;;;;3.47;2.45;;;;;;;8.07;64.08;101110.28;5050210;28;20052;-78
2022/11/07 06:10:10;;;;;;;8.63;1.27;;;;;;;8.04;64.29;101113.53;5040571;28;20182;-79
2022/11/07 06:13:01;;;;;;;3.78;2.00;;;;;;;8.05;64.23;101117.88;5040390;28;20060;-79
2022/11/07 06:15:46;;;;;;;5.47;2.22;;;;;;;8.03;64.27;101130.88;5038281;28;20053;-78
2022/11/07 06:18:31;;;;;;;3.63;2.25;;;;;;;8.21;63.76;101132.03;5034526;28;20060;-79
2022/11/07 06:21:16;;;;;;;2.95;1.67;;;;;;;8.18;64.40;101130.69;5065183;28;20056;-79
2022/11/07 06:24:00;;;;;;;11.35;4.05;;;;;;;8.16;63.70;101120.19;5036426;28;20040;-79
2022/11/07 06:26:45;;;;;;;4.15;2.15;;;;;;;8.25;64.00;101130.38;5042196;28;20704;-80
2022/11/07 06:29:30;;;;;;;3.72;1.98;;;;;;;8.26;64.36;101140.91;5049493;28;20036;-78
2022/11/07 06:32:15;;;;;;;;;;;;;;;8.34;63.87;101148.44;5048602;28;20711;-79
2022/11/07 06:35:00;;;;;;;6.43;3.40;;;;;;;8.36;63.90;101140.81;5049485;28;20292;-78
2022/11/07 06:37:45;;;;;;;4.45;2.45;;;;;;;8.43;63.36;101154.81;5054765;28;20510;-80
2022/11/07 06:40:30;;;;;;;;;;;;;;;8.32;63.73;101156.06;5060230;28;20048;-78
2022/11/07 06:43:18;;;;;;;5.50;2.65;;;;;;;8.21;64.43;101161.84;5039938;28;19918;-78
2022/11/07 06:46:04;;;;;;;6.75;3.20;;;;;;;8.30;64.67;101166.38;5056403;28;20059;-81
2022/11/07 06:48:50;;;;;;;11.20;3.47;;;;;;;8.34;64.64;101161.97;5057036;28;20052;-78
2022/11/07 06:51:34;;;;;;;15.82;3.50;;;;;;;8.36;64.53;101167.91;5058199;28;20047;-79
2022/11/07 06:54:19;;;;;;;9.98;3.85;;;;;;;8.44;64.99;101172.69;5058295;28;20075;-79
2022/11/07 06:57:03;;;;;;;20.45;3.35;;;;;;;8.54;64.59;101174.47;5045489;28;20519;-79
2022/11/07 06:59:48;;;;;;;15.75;3.33;;;;;;;8.61;64.72;101187.69;5050881;28;20056;-76
2022/11/07 07:02:32;;;;;;;18.00;4.20;;;;;;;8.67;65.40;101189.22;5051422;28;20064;-78
2022/11/07 07:05:17;;;;;;;25.52;5.97;;;;;;;8.74;65.89;101189.66;5048562;28;20051;-79
2022/11/07 07:08:04;;;;;;;12.25;3.63;;;;;;;8.80;65.88;101196.63;5046392;28;20060;-77
2022/11/07 07:10:53;;;;;;;19.83;5.90;;;;;;;8.77;66.16;101203.47;5069121;28;20052;-79
2022/11/07 07:13:38;;;;;;;13.20;4.38;;;;;;;8.79;66.54;101203.97;5046363;28;20048;-78
2022/11/07 07:16:23;;;;;;;10.40;4.75;;;;;;;8.96;66.46;101215.13;5056508;28;21534;-76
2022/11/07 07:19:07;;;;;;;11.77;4.13;;;;;;;9.00;66.71;101218.06;5040180;28;20068;-78
2022/11/07 07:21:52;;;;;;;9.50;4.47;;;;;;;8.96;66.84;101211.63;5057154;28;20067;-79
2022/11/07 07:24:36;;;;;;;13.93;5.28;;;;;;;9.00;67.12;101223.50;5064363;28;20044;-78
2022/11/07 07:27:21;;;;;;;9.68;5.90;;;;;;;9.08;67.19;101228.28;5048175;28;20056;-78
2022/11/07 07:30:07;;;;;;;8.38;3.70;;;;;;;9.06;67.75;101233.19;5056527;28;20060;-80
2022/11/07 07:32:52;;;;;;;9.93;5.20;;;;;;;9.05;67.71;101239.69;5044107;28;20048;-78
2022/11/07 07:35:36;;;;;;;9.10;4.97;;;;;;;9.18;68.13;101244.41;5062180;28;20407;-77
2022/11/07 07:38:20;;;;;;;10.15;4.40;;;;;;;9.24;68.17;101247.88;5050830;28;20059;-78
2022/11/07 07:41:05;;;;;;;12.02;4.18;;;;;;;9.36;67.38;101251.75;5062363;28;20047;-75
2022/11/07 07:43:50;;;;;;;12.30;4.57;;;;;;;9.44;69.38;101256.53;5060279;28;20055;-76
2022/11/07 07:46:35;;;;;;;11.10;5.38;;;;;;;9.46;70.58;101261.63;5071770;28;20047;-75
2022/11/07 07:49:19;;;;;;;16.40;4.95;;;;;;;9.55;70.98;101256.38;5071863;28;20060;-75
2022/11/07 07:52:04;;;;;;;11.05;5.45;;;;;;;9.73;69.75;101261.78;5071878;28;20059;-75
2022/11/07 07:54:49;;;;;;;7.43;5.40;;;;;;;9.76;69.31;101263.88;5071724;28;20044;-76
2022/11/07 07:57:41;;;;;;;10.70;5.25;;;;;;;9.77;69.34;101267.41;5071943;28;20051;-79
2022/11/07 08:00:26;;;;;;;12.65;5.25;;;;;;;9.77;67.19;101267.41;5059658;28;20055;-76
2022/11/07 08:03:11;;;;;;;13.77;5.70;;;;;;;10.04;67.66;101262.06;5041649;28;20047;-77
2022/11/07 08:05:57;;;;;;;9.38;4.68;;;;;;;9.96;65.63;101268.19;5053078;28;20274;-81
2022/11/07 08:08:42;;;;;;;10.40;5.95;;;;;;;9.97;65.18;101277.13;5044147;28;20052;-79
2022/11/07 08:11:27;;;;;;;12.35;6.35;;;;;;;10.05;64.95;101263.69;5046410;28;20423;-85
2022/11/07 08:14:11;;;;;;;12.32;5.68;;;;;;;10.22;65.35;101276.72;5046475;28;20036;-80
2022/11/07 08:16:56;;;;;;;;;;;;;;;10.44;63.98;101263.28;5061643;28;20055;-79
2022/11/07 08:19:41;;;;;;;12.90;6.45;;;;;;;10.43;63.78;101267.09;5095264;28;19913;-79
2022/11/07 08:22:25;;;;;;;18.23;6.18;;;;;;;10.37;63.82;101268.31;5069650;28;20052;-80
2022/11/07 08:25:11;;;;;;;15.38;6.22;;;;;;;10.47;62.67;101278.19;5070971;28;20051;-80
2022/11/07 08:27:56;;;;;;;12.10;6.78;;;;;;;10.49;63.36;101284.13;5068080;28;20118;-83
2022/11/07 08:30:41;;;;;;;;;;;;;;;10.74;62.05;101272.75;5067833;28;20051;-81
2022/11/07 08:33:26;;;;;;;10.48;5.82;;;;;;;10.79;63.07;101263.69;5073384;28;19912;-81
2022/11/07 08:36:11;;;;;;;11.18;6.55;;;;;;;10.99;61.87;101271.44;5055313;28;20408;-81
2022/11/07 08:38:55;;;;;;;9.35;4.65;;;;;;;11.00;61.16;101268.41;5058353;28;20058;-79
2022/11/07 08:41:40;;;;;;;18.88;7.30;;;;;;;11.06;61.46;101260.97;5065109;28;20557;-81
2022/11/07 08:44:24;;;;;;;12.13;6.28;;;;;;;11.12;62.65;101273.34;5063352;28;20047;-79
2022/11/07 08:47:09;;;;;;;17.40;5.82;;;;;;;11.14;62.37;101277.38;5061253;28;20047;-79
2022/11/07 08:49:54;;;;;;;6.47;4.55;;;;;;;11.30;61.93;101285.19;5062589;28;20055;-79
2022/11/07 08:52:38;;;;;;;11.30;6.57;;;;;;;11.35;60.96;101283.16;5063414;28;20047;-79
2022/11/07 08:55:23;;;;;;;12.18;5.45;;;;;;;11.29;61.40;101280.88;5075739;28;20549;-79
2022/11/07 08:58:10;;;;;;;;;;;;;;;11.29;60.27;101280.88;5076371;28;20232;-78
2022/11/07 09:00:54;;;;;;;7.70;5.05;;;;;;;11.29;60.81;101289.03;5075840;28;19916;-78
2022/11/07 09:03:39;;;;;;;6.85;4.53;;;;;;;11.36;60.70;101284.78;5061053;28;20407;-78
2022/11/07 09:06:24;;;;;;;9.40;5.05;;;;;;;11.50;60.08;101287.47;5064987;28;20047;-78
2022/11/07 09:09:09;;;;;;;10.27;5.18;;;;;;;11.61;60.33;101286.13;5063264;28;20553;-78
2022/11/07 09:11:54;;;;;;;;;;;;;;;11.73;59.76;101300.06;5061450;28;20055;-77
2022/11/07 09:14:39;;;;;;;8.85;5.53;;;;;;;11.74;58.75;101293.47;5065300;28;19912;-78
2022/11/07 09:17:23;;;;;;;16.45;6.65;;;;;;;11.82;58.07;101292.75;5075367;28;20050;-76
2022/11/07 09:20:09;;;;;;;;;;;;;;;11.90;58.45;101288.47;5051214;28;20056;-78
2022/11/07 09:22:58;;;;;;;12.68;5.85;;;;;;;11.98;59.13;101296.72;5065100;28;19912;-77
2022/11/07 09:25:43;;;;;;;11.85;5.80;;;;;;;12.04;57.78;101305.53;5049798;28;20048;-77
2022/11/07 09:28:28;;;;;;;14.68;4.38;;;;;;;12.12;57.98;101313.00;5048443;28;20518;-79
2022/11/07 09:31:13;;;;;;;11.23;5.05;;;;;;;12.16;58.46;101313.16;5045832;28;20037;-78
2022/11/07 09:33:58;;;;;;;;;;;;;;;12.32;56.93;101315.22;5051802;28;20040;-80
2022/11/07 09:36:42;;;;;;;14.98;5.75;;;;;;;12.34;57.29;101312.19;5045777;28;19913;-80
2022/11/07 09:39:27;;;;;;;16.98;5.70;;;;;;;12.30;54.81;101324.81;5035764;28;20068;-81
2022/11/07 09:42:21;;;;;;;10.20;4.50;;;;;;;12.38;56.71;101329.53;5043199;28;20052;-81
2022/11/07 09:45:12;;;;;;;13.32;5.93;;;;;;;12.37;56.71;101333.34;5045724;28;20047;-79
2022/11/07 09:48:01;;;;;;;13.80;5.78;;;;;;;12.39;57.56;101331.13;5031715;28;20048;-80
2022/11/07 09:50:48;;;;;;;10.85;5.40;;;;;;;12.53;57.28;101344.69;5035601;28;20052;-80
2022/11/07 09:53:40;;;;;;;10.32;5.20;;;;;;;12.59;56.75;101344.25;5032700;28;20405;-80
2022/11/07 09:56:26;;;;;;;12.77;6.47;;;;;;;12.55;56.80;101342.44;5035280;28;20530;-81
2022/11/07 09:59:29;;;;;;;10.88;5.45;;;;;;;12.64;55.87;101346.84;5053907;28;20048;-80
2022/11/07 10:02:17;;;;;;;11.15;6.07;;;;;;;12.71;56.86;101344.44;5030205;28;20052;-81
2022/11/07 10:05:03;;;;;;;10.63;6.25;;;;;;;12.73;56.39;101339.50;5028775;28;20531;-80
2022/11/07 10:08:00;;;;;;;13.43;7.18;;;;;;;12.78;56.25;101333.91;5057431;28;20056;-79
2022/11/07 10:10:54;;;;;;;12.77;6.25;;;;;;;12.79;56.51;101337.44;5024568;28;20049;-78
2022/11/07 10:13:42;;;;;;;13.38;5.88;;;;;;;12.86;56.80;101335.84;5021928;28;20060;-80
2022/11/07 10:16:32;;;;;;;17.30;5.82;;;;;;;13.05;55.67;101329.34;5025398;28;20422;-78
2022/11/07 10:19:31;;;;;;;11.07;5.93;;;;;;;13.16;55.36;101330.66;5021844;28;20056;-79
2022/11/07 10:22:43;;;;;;;16.45;7.60;;;;;;;13.13;54.90;101331.31;5035782;28;20044;-77
2022/11/07 10:25:32;;;;;;;13.13;6.65;;;;;;;13.16;55.30;101339.66;5038243;28;20056;-77
2022/11/07 10:28:19;;;;;;;12.80;6.05;;;;;;;13.13;54.86;101329.41;5049477;28;20559;-77
2022/11/07 10:31:06;;;;;;;17.83;6.75;;;;;;;13.05;54.92;101323.88;5066848;28;20055;-76
2022/11/07 10:33:55;;;;;;;15.25;6.60;;;;;;;13.11;54.79;101330.78;5065816;28;20048;-77
2022/11/07 10:36:40;;;;;;;12.95;6.57;;;;;;;13.12;54.81;101324.25;5063983;28;20043;-77
2022/11/07 10:39:24;;;;;;;17.83;6.53;;;;;;;13.03;54.71;101313.28;5064486;22;20532;-83
2022/11/07 10:42:12;;;;;;;;;;;;;;;13.07;55.80;101321.63;4989894;28;20045;-82
2022/11/07 10:44:58;;;;;;;11.93;6.70;;;;;;;13.15;55.81;101312.69;5019846;28;20386;-84
2022/11/07 10:47:56;;;;;;;15.30;6.20;;;;;;;13.26;55.87;101319.44;4986554;28;20079;-84
2022/11/07 10:50:49;;;;;;;14.95;5.80;;;;;;;13.31;54.50;101319.28;5020622;28;20066;-85
2022/11/07 10:53:42;;;;;;;16.65;6.43;;;;;;;13.36;54.58;101312.91;4980535;28;20520;-85
2022/11/07 10:56:27;;;;;;;15.35;6.25;;;;;;;13.38;54.91;101311.44;4986064;28;20045;-84
2022/11/07 10:59:20;;;;;;;10.38;4.80;;;;;;;13.37;55.10;101309.84;4987436;28;20049;-84
2022/11/07 11:02:25;;;;;;;10.93;6.28;;;;;;;13.47;54.95;101309.53;4975294;28;20053;-85
2022/11/07 11:05:39;;;;;;;7.90;4.93;;;;;;;13.56;54.30;101304.88;4972522;28;20062;-85
2022/11/07 11:08:30;;;;;;;10.63;6.57;;;;;;;13.59;54.27;101301.50;4979140;28;20316;-84
2022/11/07 11:11:22;;;;;;;11.73;6.28;;;;;;;13.62;53.96;101305.50;4981170;28;20405;-84
2022/11/07 11:14:12;;;;;;;13.77;7.07;;;;;;;13.64;53.65;101298.63;4987319;28;20042;-86
2022/11/07 11:16:57;;;;;;;10.90;5.93;;;;;;;13.65;54.45;101304.88;4996846;28;20057;-84
2022/11/07 11:19:54;;;;;;;;;;;;;;;13.78;53.78;101300.38;4998706;28;20053;-84
2022/11/07 11:22:41;;;;;;;12.65;4.65;;;;;;;13.89;52.29;101299.72;5000165;28;19918;-83
2022/11/07 11:25:27;;;;;;;12.48;5.57;;;;;;;13.89;52.50;101301.66;4994639;28;20053;-83
2022/11/07 11:28:43;;;;;;;10.07;6.18;;;;;;;13.95;52.26;101301.19;4989414;28;20413;-83
2022/11/07 11:31:44;;;;;;;18.27;6.75;;;;;;;13.97;52.31;101298.09;4987344;28;20120;-85
2022/11/07 11:34:39;;;;;;;12.15;6.45;;;;;;;13.91;52.08;101293.94;4989652;28;20050;-82
2022/11/07 11:37:26;;;;;;;11.33;6.77;;;;;;;13.92;53.07;101288.13;4994177;28;20058;-83
2022/11/07 11:40:17;;;;;;;12.13;6.70;;;;;;;14.13;52.43;101285.53;4991037;28;20289;-84
2022/11/07 11:43:21;;;;;;;10.93;6.45;;;;;;;14.27;52.34;101277.97;4993253;28;20046;-82
2022/11/07 11:46:28;;;;;;;13.75;6.07;;;;;;;14.36;52.37;101278.75;4995113;28;20069;-83
2022/11/07 11:49:23;;;;;;;13.18;7.22;;;;;;;14.35;52.69;101277.13;4984316;28;20034;-82
2022/11/07 11:52:18;;;;;;;8.77;5.18;;;;;;;14.38;52.37;101273.75;4997113;28;20053;-83
2022/11/07 11:55:12;;;;;;;13.75;6.65;;;;;;;14.40;51.93;101271.50;5002659;28;20038;-83
2022/11/07 11:58:04;;;;;;;13.80;7.22;;;;;;;14.44;51.90;101266.97;4997161;28;20049;-83
2022/11/07 12:01:27;;;;;;;14.20;6.80;;;;;;;14.42;51.59;101269.25;4997159;28;20054;-82
2022/11/07 12:04:30;;;;;;;13.93;6.15;;;;;;;14.58;51.14;101261.28;4999003;28;20049;-83
2022/11/07 12:07:48;;;;;;;13.57;6.60;;;;;;;14.72;50.51;101261.06;4992930;28;20045;-84
2022/11/07 12:10:39;;;;;;;13.45;7.20;;;;;;;14.86;49.94;101261.63;4991973;28;20073;-83
2022/11/07 12:13:38;;;;;;;11.90;6.35;;;;;;;14.93;49.82;101256.47;4994110;28;20429;-83
2022/11/07 12:17:07;;;;;;;14.93;6.63;;;;;;;14.97;49.41;101251.91;5006181;28;20073;-83
2022/11/07 12:20:05;;;;;;;13.35;6.65;;;;;;;15.02;48.91;101243.50;4989728;28;20053;-84
2022/11/07 12:23:11;;;;;;;11.40;6.80;;;;;;;14.95;49.83;101251.44;4999375;28;20053;-84
2022/11/07 12:25:57;;;;;;;16.25;7.28;;;;;;;14.91;50.88;101247.75;4991508;28;20050;-82
2022/11/07 12:28:41;;;;;;;;;;;;;;;15.09;49.35;101234.75;4988653;28;20053;-83
2022/11/07 12:31:40;;;;;;;16.10;7.40;;;;;;;15.19;48.83;101232.41;4995337;28;19913;-83
2022/11/07 12:34:35;;;;;;;13.07;6.88;;;;;;;15.23;49.23;101222.41;4990564;28;20045;-83
2022/11/07 12:37:48;;;;;;;16.00;7.15;;;;;;;15.36;49.10;101226.00;4983816;28;20053;-83
2022/11/07 12:40:54;;;;;;;12.98;6.93;;;;;;;15.41;48.90;101221.13;4990332;28;20046;-83
2022/11/07 12:43:48;;;;;;;9.43;5.75;;;;;;;15.50;49.56;101220.25;4995123;28;20049;-83
2022/11/07 12:46:47;;;;;;;13.20;7.10;;;;;;;15.52;49.66;101223.50;4992462;28;20046;-81
2022/11/07 12:49:55;;;;;;;17.23;7.90;;;;;;;15.45;49.48;101223.19;4989322;28;20054;-81
2022/11/07 12:52:50;;;;;;;14.05;7.10;;;;;;;15.70;48.52;101220.25;4995004;28;20042;-84
2022/11/07 12:55:47;;;;;;;18.90;7.68;;;;;;;15.83;47.92;101227.41;4985417;28;20049;-82
2022/11/07 12:58:34;;;;;;;16.10;7.60;;;;;;;15.89;47.48;101222.50;4995121;28;20069;-83
2022/11/07 13:01:38;;;;;;;15.73;7.07;;;;;;;15.92;47.76;101224.56;4995764;28;20421;-83
2022/11/07 13:04:44;;;;;;;12.38;5.45;;;;;;;15.93;48.53;101217.13;4996232;28;20049;-82
2022/11/07 13:08:19;;;;;;;14.13;6.95;;;;;;;16.12;47.07;101214.66;5000818;28;20061;-84
2022/11/07 13:11:26;;;;;;;12.90;6.57;;;;;;;16.24;46.45;101223.72;4994808;28;20057;-84
2022/11/07 13:14:16;;;;;;;12.60;6.60;;;;;;;16.46;44.92;101219.72;4974443;28;20410;-85
2022/11/07 13:17:18;;;;;;;14.43;7.28;;;;;;;16.52;43.99;101212.06;4979319;28;20058;-84
2022/11/07 13:20:20;;;;;;;13.57;6.85;;;;;;;16.54;43.84;101207.03;4983574;28;20049;-84
2022/11/07 13:23:14;;;;;;;15.93;6.93;;;;;;;16.46;44.56;101208.75;4998402;28;20444;-85